createdAt,value
2022-10-17T00:01:23.198Z,18.94
2022-10-17T00:04:25.306Z,18.88
2022-10-17T00:07:27.572Z,18.94
2022-10-17T00:10:29.840Z,18.94
2022-10-17T00:16:40.067Z,18.88
2022-10-17T00:19:42.416Z,18.88
2022-10-17T00:22:44.469Z,18.88
2022-10-17T00:25:46.522Z,18.88
2022-10-17T00:28:50.666Z,18.88
2022-10-17T00:31:56.137Z,18.88
2022-10-17T00:34:58.753Z,18.94
2022-10-17T00:38:00.799Z,18.88
2022-10-17T00:41:03.527Z,18.88
2022-10-17T00:44:27.257Z,18.88
2022-10-17T00:47:30.514Z,18.88
2022-10-17T00:50:34.264Z,18.88
2022-10-17T00:53:39.199Z,18.88
2022-10-17T00:56:41.527Z,18.88
2022-10-17T00:59:47.113Z,18.88
2022-10-17T01:02:49.131Z,18.88
2022-10-17T01:05:51.401Z,18.88
2022-10-17T01:08:53.773Z,18.88
2022-10-17T01:12:12.061Z,18.81
2022-10-17T01:15:28.797Z,18.81
2022-10-17T01:18:46.191Z,18.81
2022-10-17T01:21:57.321Z,18.81
2022-10-17T01:25:19.741Z,18.81
2022-10-17T01:28:46.448Z,18.81
2022-10-17T01:32:00.064Z,18.81
2022-10-17T01:35:27.628Z,18.81
2022-10-17T01:38:43.647Z,18.81
2022-10-17T01:42:18.425Z,18.81
2022-10-17T01:45:31.639Z,18.81
2022-10-17T01:48:36.962Z,18.75
2022-10-17T01:51:49.805Z,18.75
2022-10-17T01:55:06.044Z,18.75
2022-10-17T01:58:20.724Z,18.75
2022-10-17T02:01:24.503Z,18.75
2022-10-17T02:04:26.688Z,18.75
2022-10-17T02:07:28.968Z,18.75
2022-10-17T02:10:42.840Z,18.75
2022-10-17T02:14:22.085Z,18.75
2022-10-17T02:17:51.553Z,18.75
2022-10-17T02:21:06.971Z,18.69
2022-10-17T02:24:27.427Z,18.75
2022-10-17T02:27:41.215Z,18.75
2022-10-17T02:30:58.118Z,18.69
2022-10-17T02:34:03.922Z,18.69
2022-10-17T02:37:08.411Z,18.75
2022-10-17T02:40:12.545Z,18.69
2022-10-17T02:43:15.032Z,18.69
2022-10-17T02:46:23.032Z,18.69
2022-10-17T02:49:30.483Z,18.69
2022-10-17T02:52:58.103Z,18.69
2022-10-17T02:56:06.128Z,18.69
2022-10-17T02:59:11.582Z,18.69
2022-10-17T03:02:13.695Z,18.69
2022-10-17T03:05:27.902Z,18.69
2022-10-17T03:08:29.986Z,18.69
2022-10-17T03:11:32.206Z,18.69
2022-10-17T03:14:34.208Z,18.69
2022-10-17T03:17:36.716Z,18.63
2022-10-17T03:20:38.806Z,18.69
2022-10-17T03:23:40.814Z,18.63
2022-10-17T03:26:42.904Z,18.63
2022-10-17T03:29:44.889Z,18.63
2022-10-17T03:32:46.995Z,18.63
2022-10-17T03:38:55.259Z,18.63
2022-10-17T03:41:57.380Z,18.63
2022-10-17T03:44:59.418Z,18.63
2022-10-17T03:48:01.459Z,18.63
2022-10-17T03:51:06.422Z,18.63
2022-10-17T03:54:08.460Z,18.63
2022-10-17T03:57:10.474Z,18.56
2022-10-17T04:00:13.043Z,18.63
2022-10-17T04:03:17.177Z,18.56
2022-10-17T04:06:20.664Z,18.63
2022-10-17T04:09:22.643Z,18.56
2022-10-17T04:12:24.748Z,18.56
2022-10-17T04:15:26.830Z,18.56
2022-10-17T04:18:29.007Z,18.56
2022-10-17T04:21:31.137Z,18.56
2022-10-17T04:24:33.123Z,18.56
2022-10-17T04:27:35.131Z,18.56
2022-10-17T04:30:38.011Z,18.56
2022-10-17T04:33:41.971Z,18.56
2022-10-17T04:36:43.963Z,18.56
2022-10-17T04:39:45.989Z,18.56
2022-10-17T04:42:48.410Z,18.56
2022-10-17T04:45:50.461Z,18.56
2022-10-17T04:48:53.634Z,18.56
2022-10-17T04:51:55.640Z,18.56
2022-10-17T04:54:58.039Z,18.56
2022-10-17T04:58:00.225Z,18.56
2022-10-17T05:01:20.042Z,18.50
2022-10-17T05:04:24.719Z,18.56
2022-10-17T05:07:27.077Z,18.50
2022-10-17T05:10:29.463Z,18.50
2022-10-17T05:13:32.109Z,18.50
2022-10-17T05:16:34.441Z,18.50
2022-10-17T05:19:36.618Z,18.50
2022-10-17T05:22:41.954Z,18.56
2022-10-17T05:25:44.429Z,18.50
2022-10-17T05:28:46.492Z,18.50
2022-10-17T05:31:48.775Z,18.50
2022-10-17T05:34:50.858Z,18.50
2022-10-17T05:37:52.902Z,18.50
2022-10-17T05:40:59.817Z,18.50
2022-10-17T05:44:04.719Z,18.50
2022-10-17T05:47:08.982Z,18.50
2022-10-17T05:50:11.306Z,18.56
2022-10-17T05:53:13.330Z,18.50
2022-10-17T05:56:15.403Z,18.56
2022-10-17T05:59:17.467Z,18.50
2022-10-17T06:02:19.685Z,18.50
2022-10-17T06:05:22.333Z,18.50
2022-10-17T06:08:24.410Z,18.50
2022-10-17T06:11:26.439Z,18.50
2022-10-17T06:14:28.445Z,18.50
2022-10-17T06:17:30.724Z,18.50
2022-10-17T06:20:32.776Z,18.50
2022-10-17T06:23:34.871Z,18.50
2022-10-17T06:26:36.875Z,18.50
2022-10-17T06:29:39.110Z,18.56
2022-10-17T06:32:41.189Z,18.50
2022-10-17T06:35:43.495Z,18.50
2022-10-17T06:38:46.033Z,18.50
2022-10-17T06:41:48.221Z,18.56
2022-10-17T06:44:50.284Z,18.63
2022-10-17T06:47:52.272Z,18.63
2022-10-17T06:50:58.173Z,18.63
2022-10-17T06:54:00.227Z,18.63
2022-10-17T06:57:02.331Z,18.63
2022-10-17T07:00:06.560Z,18.63
2022-10-17T07:03:08.722Z,18.81
2022-10-17T07:06:11.270Z,19.00
2022-10-17T07:09:13.381Z,19.00
2022-10-17T07:12:15.432Z,19.00
2022-10-17T07:15:17.635Z,19.06
2022-10-17T07:18:19.727Z,19.13
2022-10-17T07:21:21.956Z,19.13
2022-10-17T07:24:23.988Z,19.06
2022-10-17T07:27:26.199Z,19.00
2022-10-17T07:30:28.559Z,18.88
2022-10-17T07:33:30.707Z,19.00
2022-10-17T07:36:32.887Z,19.00
2022-10-17T07:39:35.762Z,18.94
2022-10-17T07:45:41.848Z,18.94
2022-10-17T07:48:43.921Z,19.00
2022-10-17T07:54:54.408Z,19.06
2022-10-17T07:57:58.204Z,19.06
2022-10-17T08:01:06.653Z,19.19
2022-10-17T08:04:10.493Z,19.06
2022-10-17T08:07:21.892Z,18.69
2022-10-17T08:10:28.245Z,18.94
2022-10-17T08:13:30.239Z,19.06
2022-10-17T08:16:32.315Z,19.13
2022-10-17T08:19:34.371Z,18.94
2022-10-17T08:22:36.353Z,19.00
2022-10-17T08:25:39.785Z,19.00
2022-10-17T08:28:42.073Z,18.56
2022-10-17T08:31:47.716Z,18.63
2022-10-17T08:34:50.452Z,18.88
2022-10-17T08:37:52.642Z,19.00
2022-10-17T08:40:59.266Z,19.00
2022-10-17T08:44:27.396Z,19.00
2022-10-17T08:48:00.794Z,19.00
2022-10-17T08:51:14.996Z,19.06
2022-10-17T08:54:34.531Z,19.00
2022-10-17T08:57:36.640Z,19.00
2022-10-17T09:00:41.016Z,19.00
2022-10-17T09:04:12.767Z,19.00
2022-10-17T09:07:45.356Z,19.00
2022-10-17T09:10:57.503Z,19.00
2022-10-17T09:14:27.255Z,18.94
2022-10-17T09:17:44.926Z,19.00
2022-10-17T09:20:51.707Z,19.00
2022-10-17T09:24:09.392Z,19.00
2022-10-17T09:27:50.789Z,19.06
2022-10-17T09:31:05.645Z,19.06
2022-10-17T09:34:11.359Z,19.00
2022-10-17T09:37:15.891Z,19.06
2022-10-17T09:40:38.320Z,19.13
2022-10-17T09:43:40.831Z,19.13
2022-10-17T09:47:02.614Z,19.06
2022-10-17T09:50:16.002Z,19.13
2022-10-17T09:53:33.268Z,19.13
2022-10-17T09:56:58.083Z,19.13
2022-10-17T10:00:04.574Z,19.19
2022-10-17T10:03:09.420Z,19.19
2022-10-17T10:06:19.584Z,19.25
2022-10-17T10:09:25.509Z,19.19
2022-10-17T10:12:33.431Z,19.19
2022-10-17T10:15:40.944Z,19.25
2022-10-17T10:18:45.408Z,19.25
2022-10-17T10:21:58.148Z,19.25
2022-10-17T10:25:16.413Z,19.25
2022-10-17T10:28:18.731Z,19.25
2022-10-17T10:31:38.355Z,19.31
2022-10-17T10:35:05.122Z,19.25
2022-10-17T10:38:16.565Z,19.31
2022-10-17T10:41:18.720Z,19.31
2022-10-17T10:44:25.404Z,19.31
2022-10-17T10:47:29.438Z,19.44
2022-10-17T10:50:45.460Z,19.44
2022-10-17T10:54:02.119Z,19.44
2022-10-17T10:57:07.714Z,19.50
2022-10-17T11:00:18.204Z,19.50
2022-10-17T11:03:30.023Z,19.50
2022-10-17T11:06:36.803Z,19.44
2022-10-17T11:10:07.818Z,19.50
2022-10-17T11:13:16.557Z,19.50
2022-10-17T11:16:28.788Z,19.56
2022-10-17T11:19:40.180Z,19.63
2022-10-17T11:22:48.598Z,19.56
2022-10-17T11:25:54.598Z,19.56
2022-10-17T11:28:58.383Z,19.63
2022-10-17T11:32:14.984Z,19.63
2022-10-17T11:35:23.643Z,19.63
2022-10-17T11:38:49.401Z,19.75
2022-10-17T11:42:09.671Z,19.75
2022-10-17T11:45:19.694Z,19.81
2022-10-17T11:48:30.672Z,20.06
2022-10-17T11:55:23.145Z,20.75
2022-10-17T11:58:44.487Z,20.94
2022-10-17T12:01:54.881Z,21.38
2022-10-17T12:05:02.178Z,21.75
2022-10-17T12:08:25.259Z,21.44
2022-10-17T12:11:53.717Z,21.94
2022-10-17T12:15:24.325Z,21.63
2022-10-17T12:18:29.497Z,22.38
2022-10-17T12:22:02.991Z,21.94
2022-10-17T12:25:05.407Z,22.25
2022-10-17T12:28:07.404Z,21.81
2022-10-17T12:31:16.296Z,22.38
2022-10-17T12:34:22.503Z,22.25
2022-10-17T12:37:43.434Z,22.00
2022-10-17T12:40:49.102Z,22.75
2022-10-17T12:43:53.065Z,22.88
2022-10-17T12:47:04.851Z,22.75
2022-10-17T12:51:17.641Z,22.44
2022-10-17T12:54:22.484Z,23.06
2022-10-17T12:57:42.493Z,23.31
2022-10-17T13:01:11.816Z,23.19
2022-10-17T13:04:15.021Z,22.94
2022-10-17T13:07:20.598Z,23.31
2022-10-17T13:13:49.011Z,23.75
2022-10-17T13:16:57.459Z,23.44
2022-10-17T13:19:59.696Z,23.81
2022-10-17T13:23:01.922Z,23.81
2022-10-17T13:26:28.684Z,23.44
2022-10-17T13:29:32.842Z,23.75
2022-10-17T13:32:40.688Z,23.50
2022-10-17T13:35:59.364Z,24.19
2022-10-17T13:39:12.314Z,23.63
2022-10-17T13:42:46.777Z,24.13
2022-10-17T13:45:52.577Z,24.25
2022-10-17T13:48:55.432Z,23.75
2022-10-17T13:51:59.072Z,24.19
2022-10-17T13:55:16.850Z,23.88
2022-10-17T13:58:19.903Z,23.75
2022-10-17T14:01:23.196Z,24.06
2022-10-17T14:04:25.237Z,24.38
2022-10-17T14:08:09.321Z,24.19
2022-10-17T14:11:03.271Z,24.25
2022-10-17T14:14:16.532Z,24.06
2022-10-17T14:17:28.618Z,24.19
2022-10-17T14:21:19.376Z,23.94
2022-10-17T14:24:13.961Z,23.88
2022-10-17T14:27:30.247Z,24.06
2022-10-17T14:30:55.671Z,24.44
2022-10-17T14:33:58.838Z,24.00
2022-10-17T14:37:01.323Z,23.81
2022-10-17T14:40:06.878Z,23.94
2022-10-17T14:43:20.654Z,23.63
2022-10-17T14:46:23.424Z,23.38
2022-10-17T14:49:33.768Z,23.31
2022-10-17T14:52:36.153Z,23.38
2022-10-17T14:55:40.412Z,23.19
2022-10-17T14:58:42.507Z,23.19
2022-10-17T15:01:44.717Z,23.19
2022-10-17T15:04:46.740Z,23.06
2022-10-17T15:07:48.934Z,23.13
2022-10-17T15:10:51.896Z,23.06
2022-10-17T15:13:53.915Z,22.94
2022-10-17T15:16:56.072Z,22.56
2022-10-17T15:19:58.956Z,22.38
2022-10-17T15:23:02.270Z,22.31
2022-10-17T15:26:11.331Z,22.19
2022-10-17T15:29:16.403Z,22.06
2022-10-17T15:32:18.856Z,21.94
2022-10-17T15:35:22.115Z,21.88
2022-10-17T15:38:24.095Z,21.81
2022-10-17T15:41:28.478Z,21.75
2022-10-17T15:44:30.487Z,21.75
2022-10-17T15:47:33.854Z,21.69
2022-10-17T15:50:36.474Z,21.63
2022-10-17T15:53:38.870Z,21.63
2022-10-17T15:56:42.641Z,21.56
2022-10-17T15:59:46.814Z,21.56
2022-10-17T16:02:49.740Z,21.50
2022-10-17T16:05:51.777Z,21.50
2022-10-17T16:08:53.818Z,21.44
2022-10-17T16:11:55.880Z,21.38
2022-10-17T16:14:58.228Z,21.38
2022-10-17T16:18:02.842Z,21.38
2022-10-17T16:21:13.861Z,21.38
2022-10-17T16:24:17.775Z,21.31
2022-10-17T16:27:19.794Z,21.25
2022-10-17T16:33:31.366Z,21.25
2022-10-17T16:36:33.639Z,21.25
2022-10-17T16:39:35.689Z,21.19
2022-10-17T16:42:37.827Z,21.19
2022-10-17T16:45:40.470Z,21.13
2022-10-17T16:48:43.768Z,21.13
2022-10-17T16:51:45.967Z,21.13
2022-10-17T16:54:47.966Z,21.06
2022-10-17T16:57:50.007Z,21.06
2022-10-17T17:00:52.066Z,21.00
2022-10-17T17:03:54.862Z,21.00
2022-10-17T17:06:56.888Z,20.94
2022-10-17T17:09:58.908Z,20.94
2022-10-17T17:13:01.722Z,20.94
2022-10-17T17:16:09.306Z,20.94
2022-10-17T17:19:13.911Z,20.88
2022-10-17T17:22:15.912Z,20.81
2022-10-17T17:25:17.922Z,20.88
2022-10-17T17:28:19.981Z,20.81
2022-10-17T17:31:24.522Z,20.81
2022-10-17T17:34:26.720Z,20.81
2022-10-17T17:37:29.029Z,20.81
2022-10-17T17:40:31.506Z,20.75
2022-10-17T17:43:33.788Z,20.75
2022-10-17T17:46:35.944Z,20.75
2022-10-17T17:49:37.936Z,20.69
2022-10-17T17:52:42.048Z,20.69
2022-10-17T17:55:44.518Z,20.69
2022-10-17T17:58:48.400Z,20.69
2022-10-17T18:01:50.598Z,20.69
2022-10-17T18:04:52.700Z,20.63
2022-10-17T18:07:54.726Z,20.63
2022-10-17T18:10:58.394Z,20.63
2022-10-17T18:14:03.908Z,20.56
2022-10-17T18:17:06.053Z,20.56
2022-10-17T18:20:08.548Z,20.56
2022-10-17T18:23:11.500Z,20.56
2022-10-17T18:26:14.603Z,20.50
2022-10-17T18:29:16.733Z,20.56
2022-10-17T18:32:19.112Z,20.50
2022-10-17T18:35:21.339Z,20.50
2022-10-17T18:38:23.419Z,20.44
2022-10-17T18:41:26.515Z,20.44
2022-10-17T18:44:28.800Z,20.50
2022-10-17T18:47:31.528Z,20.44
2022-10-17T18:50:33.949Z,20.44
2022-10-17T18:53:43.217Z,20.44
2022-10-17T18:56:45.505Z,20.44
2022-10-17T18:59:47.701Z,20.44
2022-10-17T19:02:50.058Z,20.38
2022-10-17T19:05:52.279Z,20.38
2022-10-17T19:08:54.527Z,20.38
2022-10-17T19:11:56.650Z,20.38
2022-10-17T19:14:58.950Z,20.31
2022-10-17T19:18:01.437Z,20.31
2022-10-17T19:21:05.581Z,20.31
2022-10-17T19:24:11.749Z,20.31
2022-10-17T19:27:13.849Z,20.31
2022-10-17T19:30:16.017Z,20.31
2022-10-17T19:33:18.247Z,20.31
2022-10-17T19:36:22.215Z,20.25
2022-10-17T19:39:25.221Z,20.25
2022-10-17T19:42:27.396Z,20.25
2022-10-17T19:45:29.608Z,20.25
2022-10-17T19:48:33.333Z,20.25
2022-10-17T19:51:35.519Z,20.31
2022-10-17T19:54:39.450Z,20.31
2022-10-17T19:57:41.554Z,20.31
2022-10-17T20:00:48.693Z,20.31
2022-10-17T20:03:51.025Z,20.25
2022-10-17T20:06:54.043Z,20.25
2022-10-17T20:09:56.256Z,20.25
2022-10-17T20:12:58.327Z,20.25
2022-10-17T20:16:00.484Z,20.25
2022-10-17T20:19:09.500Z,20.19
2022-10-17T20:22:11.681Z,20.19
2022-10-17T20:25:14.368Z,20.19
2022-10-17T20:28:16.454Z,20.19
2022-10-17T20:31:18.838Z,20.19
2022-10-17T20:34:20.973Z,20.13
2022-10-17T20:37:23.402Z,20.13
2022-10-17T20:40:40.985Z,20.13
2022-10-17T20:43:43.114Z,20.13
2022-10-17T20:47:00.763Z,20.13
2022-10-17T20:50:04.364Z,20.13
2022-10-17T20:53:34.822Z,20.13
2022-10-17T20:56:31.056Z,20.19
2022-10-17T20:59:35.126Z,20.19
2022-10-17T21:02:37.315Z,20.13
2022-10-17T21:05:40.497Z,20.13
2022-10-17T21:08:43.020Z,20.19
2022-10-17T21:11:45.304Z,20.13
2022-10-17T21:14:47.444Z,20.13
2022-10-17T21:17:49.523Z,20.13
2022-10-17T21:20:51.642Z,20.06
2022-10-17T21:24:00.757Z,20.06
2022-10-17T21:27:02.842Z,20.06
2022-10-17T21:30:05.469Z,20.06
2022-10-17T21:33:07.580Z,20.06
2022-10-17T21:36:10.566Z,20.06
2022-10-17T21:39:13.486Z,20.06
2022-10-17T21:42:15.621Z,20.06
2022-10-17T21:45:25.319Z,20.06
2022-10-17T21:48:27.970Z,20.06
2022-10-17T21:51:30.148Z,20.06
2022-10-17T21:54:32.287Z,20.06
2022-10-17T21:57:34.399Z,20.06
2022-10-17T22:00:36.528Z,20.06
2022-10-17T22:03:44.173Z,20.06
2022-10-17T22:06:51.320Z,20.00
2022-10-17T22:09:53.595Z,20.00
2022-10-17T22:12:55.607Z,20.00
2022-10-17T22:16:02.644Z,20.06
2022-10-17T22:19:06.651Z,20.00
2022-10-17T22:22:08.951Z,20.00
2022-10-17T22:25:11.029Z,20.00
2022-10-17T22:28:13.207Z,20.00
2022-10-17T22:31:15.298Z,20.00
2022-10-17T22:34:18.435Z,20.00
2022-10-17T22:37:20.438Z,20.00
2022-10-17T22:40:22.458Z,20.00
2022-10-17T22:43:24.620Z,20.00
2022-10-17T22:46:26.861Z,20.00
2022-10-17T22:49:28.843Z,20.00
2022-10-17T22:52:31.029Z,20.00
2022-10-17T22:55:33.420Z,19.94
2022-10-17T22:58:35.902Z,19.94
2022-10-17T23:01:37.941Z,19.94
2022-10-17T23:04:41.339Z,20.00
2022-10-17T23:07:43.331Z,19.94
2022-10-17T23:10:46.422Z,19.94
2022-10-17T23:13:48.584Z,19.88
2022-10-17T23:16:50.609Z,19.94
2022-10-17T23:19:55.522Z,19.94
2022-10-17T23:22:59.868Z,19.94
2022-10-17T23:26:07.498Z,19.94
2022-10-17T23:29:09.573Z,19.94
2022-10-17T23:32:11.668Z,19.94
2022-10-17T23:35:14.066Z,19.88
2022-10-17T23:38:16.083Z,19.88
2022-10-17T23:41:18.083Z,19.94
2022-10-17T23:44:20.095Z,19.94
2022-10-17T23:47:22.232Z,19.94
2022-10-17T23:50:24.353Z,19.94
2022-10-17T23:53:26.774Z,19.94
2022-10-17T23:56:29.338Z,19.94
2022-10-17T23:59:31.745Z,19.94
